11R

Brenham Municipal Airport

Brenham, Texas, USA
METAR K11R 232255Z AUTO 01007KT 10SM CLR 27/12 A2998 RMK AO2 T02650117
Observed Flight Rules
Apr-23 @ 22:55 UTC (16 minutes ago) Visual Flight Rules
Wind Visibility Clouds
10° at 7 knots 10 miles
  • Clear skies
Temperatures Readings
Current 27°C / 81°F
Dewpoint 12°C / 54°F
Humidity 39%
Altimeter 29.98" Hg
Pressure 1015 hPa
Elevation 94
METAR K11R 232255Z AUTO 01007KT 10SM CLR 27/12 A2998 RMK AO2 T02650117
Observed Flight Rules
Apr-23 @ 22:55 UTC
(16 minutes ago)
VFR
Wind Visibility
10° at 7 knots 10 miles
Clouds
  • Clear skies
Temperature Dewpoint
27°C / 81°F 12°C / 54°F
Humidity Altimeter Pressure
39% 29.98" Hg 1015 hPa